createdAt,value
2019-02-19T00:02:07.426Z,24.30
2019-02-19T00:04:37.337Z,22.77
2019-02-19T00:07:07.282Z,26.83
2019-02-19T00:09:37.235Z,23.57
2019-02-19T00:12:07.160Z,26.30
2019-02-19T00:14:37.057Z,24.10
2019-02-19T00:17:07.068Z,22.33
2019-02-19T00:19:36.985Z,22.57
2019-02-19T00:22:06.957Z,22.77
2019-02-19T00:24:36.879Z,25.37
2019-02-19T00:27:06.808Z,23.60
2019-02-19T00:29:36.712Z,26.63
2019-02-19T00:32:06.683Z,28.73
2019-02-19T00:34:36.572Z,30.37
2019-02-19T00:37:06.530Z,29.10
2019-02-19T00:39:36.439Z,27.00
2019-02-19T00:42:06.392Z,28.03
2019-02-19T00:44:36.279Z,28.23
2019-02-19T00:47:06.322Z,23.70
2019-02-19T00:49:36.228Z,25.90
2019-02-19T00:52:06.174Z,23.97
2019-02-19T00:54:36.252Z,28.47
2019-02-19T00:57:06.180Z,26.50
2019-02-19T00:59:36.071Z,23.67
2019-02-19T01:02:06.124Z,27.50
2019-02-19T01:04:36.209Z,24.07
2019-02-19T01:07:06.195Z,20.90
2019-02-19T01:09:36.150Z,24.40
2019-02-19T01:12:06.168Z,25.50
2019-02-19T01:14:36.087Z,26.90
2019-02-19T01:17:05.995Z,24.83
2019-02-19T01:19:35.907Z,26.40
2019-02-19T01:22:06.004Z,22.50
2019-02-19T01:24:35.934Z,26.60
2019-02-19T01:27:05.835Z,27.30
2019-02-19T01:29:35.741Z,37.03
2019-02-19T01:32:05.654Z,25.03
2019-02-19T01:34:35.665Z,26.10
2019-02-19T01:37:05.564Z,30.30
2019-02-19T01:39:35.500Z,24.30
2019-02-19T01:42:08.852Z,29.63
2019-02-19T01:44:38.941Z,29.43
2019-02-19T01:47:08.837Z,34.60
2019-02-19T01:49:38.893Z,24.90
2019-02-19T01:52:08.988Z,25.80
2019-02-19T01:54:38.904Z,23.43
2019-02-19T01:57:08.882Z,24.40
2019-02-19T01:59:38.788Z,26.53
2019-02-19T02:02:09.120Z,24.73
2019-02-19T02:04:38.949Z,24.53
2019-02-19T02:07:08.894Z,28.23
2019-02-19T02:09:38.892Z,25.80
2019-02-19T02:12:08.883Z,25.60
2019-02-19T02:14:38.795Z,27.30
2019-02-19T02:17:08.791Z,24.93
2019-02-19T02:19:38.726Z,26.33
2019-02-19T02:22:08.696Z,27.20
2019-02-19T02:24:38.622Z,23.70
2019-02-19T02:27:08.653Z,23.97
2019-02-19T02:29:38.584Z,25.80
2019-02-19T02:32:08.582Z,23.20
2019-02-19T02:34:38.509Z,31.47
2019-02-19T02:37:08.400Z,31.13
2019-02-19T02:39:38.419Z,27.47
2019-02-19T02:42:08.409Z,25.37
2019-02-19T02:44:38.329Z,26.47
2019-02-19T02:47:08.539Z,24.87
2019-02-19T02:49:38.529Z,24.87
2019-02-19T02:52:08.422Z,25.10
2019-02-19T02:54:38.501Z,26.30
2019-02-19T02:57:08.426Z,27.17
2019-02-19T02:59:38.426Z,26.53
2019-02-19T03:02:08.335Z,26.60
2019-02-19T03:04:38.287Z,31.47
2019-02-19T03:07:19.095Z,31.03
2019-02-19T03:09:49.005Z,30.10
2019-02-19T03:12:18.968Z,28.23
2019-02-19T03:14:48.936Z,27.57
2019-02-19T03:17:19.031Z,24.40
2019-02-19T03:19:49.100Z,30.23
2019-02-19T03:22:19.045Z,30.50
2019-02-19T03:24:49.023Z,30.50
2019-02-19T03:27:18.962Z,26.17
2019-02-19T03:29:48.943Z,29.90
2019-02-19T03:32:18.929Z,23.67
2019-02-19T03:34:48.840Z,30.43
2019-02-19T03:37:18.819Z,27.83
2019-02-19T03:39:51.212Z,29.43
2019-02-19T03:42:21.846Z,32.20
2019-02-19T03:44:51.757Z,24.80
2019-02-19T03:47:21.701Z,24.87
2019-02-19T03:49:51.722Z,26.27
2019-02-19T03:52:21.937Z,24.97
2019-02-19T03:54:51.873Z,26.37
2019-02-19T03:57:21.798Z,26.80
2019-02-19T03:59:51.713Z,26.90
2019-02-19T04:02:21.652Z,26.13
2019-02-19T04:04:51.719Z,24.63
2019-02-19T04:07:21.636Z,33.27
2019-02-19T04:09:51.631Z,27.23
2019-02-19T04:12:21.536Z,29.30
2019-02-19T04:14:51.484Z,26.53
2019-02-19T04:17:21.400Z,30.00
2019-02-19T04:19:51.404Z,30.53
2019-02-19T04:22:21.420Z,30.93
2019-02-19T04:24:51.342Z,27.10
2019-02-19T04:27:21.308Z,25.73
2019-02-19T04:29:51.337Z,33.43
2019-02-19T04:32:21.225Z,28.57
2019-02-19T04:34:51.160Z,28.87
2019-02-19T04:37:21.146Z,33.30
2019-02-19T04:39:51.354Z,30.53
2019-02-19T04:42:21.645Z,26.43
2019-02-19T04:44:51.673Z,27.67
2019-02-19T04:47:21.664Z,27.03
2019-02-19T04:49:51.682Z,29.47
2019-02-19T04:52:21.601Z,29.97
2019-02-19T04:54:51.528Z,30.47
2019-02-19T04:57:21.513Z,28.13
2019-02-19T04:59:51.648Z,32.43
2019-02-19T05:02:21.629Z,31.63
2019-02-19T05:04:51.630Z,29.73
2019-02-19T05:07:21.706Z,33.47
2019-02-19T05:09:51.797Z,30.63
2019-02-19T05:12:21.728Z,31.77
2019-02-19T05:14:51.818Z,37.37
2019-02-19T05:17:21.861Z,37.27
2019-02-19T05:19:51.872Z,51.17
2019-02-19T05:22:21.801Z,33.57
2019-02-19T05:24:51.825Z,30.83
2019-02-19T05:27:21.786Z,34.80
2019-02-19T05:29:51.710Z,30.40
2019-02-19T05:32:21.628Z,31.40
2019-02-19T05:34:51.672Z,28.87
2019-02-19T05:37:21.630Z,32.30
2019-02-19T05:39:51.653Z,30.30
2019-02-19T05:42:21.790Z,29.03
2019-02-19T05:44:51.827Z,30.90
2019-02-19T05:47:21.901Z,32.23
2019-02-19T05:49:51.832Z,31.10
2019-02-19T05:52:21.845Z,32.63
2019-02-19T05:54:51.960Z,33.80
2019-02-19T05:57:21.923Z,33.23
2019-02-19T05:59:51.988Z,60.87
2019-02-19T06:02:23.764Z,30.17
2019-02-19T06:04:53.924Z,26.13
2019-02-19T06:07:24.433Z,28.77
2019-02-19T06:09:54.351Z,32.83
2019-02-19T06:12:26.418Z,31.53
2019-02-19T06:14:58.811Z,28.27
2019-02-19T06:17:32.125Z,29.40
2019-02-19T06:20:02.271Z,55.70
2019-02-19T06:22:32.173Z,32.60
2019-02-19T06:25:02.372Z,46.83
2019-02-19T06:27:32.672Z,42.30
2019-02-19T06:30:02.816Z,54.67
2019-02-19T06:32:32.713Z,40.03
2019-02-19T06:35:02.648Z,63.60
2019-02-19T06:37:32.655Z,62.47
2019-02-19T06:40:02.642Z,54.20
2019-02-19T06:42:32.564Z,52.43
2019-02-19T06:45:02.546Z,66.30
2019-02-19T06:47:32.618Z,66.93
2019-02-19T06:50:02.604Z,49.57
2019-02-19T06:52:32.549Z,60.87
2019-02-19T06:55:02.459Z,53.60
2019-02-19T06:57:32.387Z,51.33
2019-02-19T07:00:02.294Z,55.07
2019-02-19T07:02:45.011Z,42.20
2019-02-19T07:05:20.124Z,49.20
2019-02-19T07:07:50.037Z,56.73
2019-02-19T07:10:19.858Z,60.67
2019-02-19T07:12:49.871Z,53.47
2019-02-19T07:15:19.824Z,42.37
2019-02-19T07:17:49.748Z,47.40
2019-02-19T07:20:19.726Z,45.20
2019-02-19T07:22:49.634Z,50.03
2019-02-19T07:25:20.188Z,46.40
2019-02-19T07:27:50.105Z,49.90
2019-02-19T07:30:20.033Z,50.43
2019-02-19T07:32:49.982Z,56.63
2019-02-19T07:35:19.951Z,49.17
2019-02-19T07:37:49.863Z,58.97
2019-02-19T07:40:20.172Z,56.27
2019-02-19T07:42:50.125Z,46.70
2019-02-19T07:45:20.021Z,51.47
2019-02-19T07:47:49.936Z,43.77
2019-02-19T07:50:19.856Z,47.80
2019-02-19T07:52:49.796Z,45.47
2019-02-19T07:55:19.767Z,45.43
2019-02-19T07:57:49.749Z,48.73
2019-02-19T08:00:19.659Z,46.10
2019-02-19T08:02:49.593Z,42.90
2019-02-19T08:05:19.574Z,40.60
2019-02-19T08:07:49.511Z,49.30
2019-02-19T08:10:19.400Z,40.57
2019-02-19T08:12:49.360Z,39.43
2019-02-19T08:15:19.351Z,44.77
2019-02-19T08:17:49.361Z,39.77
2019-02-19T08:20:19.285Z,39.73
2019-02-19T08:22:49.198Z,33.70
2019-02-19T08:25:19.295Z,39.30
2019-02-19T08:27:51.105Z,34.10
2019-02-19T08:30:20.748Z,40.30
2019-02-19T08:32:50.746Z,34.03
2019-02-19T08:35:20.667Z,35.33
2019-02-19T08:37:50.596Z,36.13
2019-02-19T08:40:20.509Z,37.93
2019-02-19T08:42:50.429Z,37.70
2019-02-19T08:45:20.342Z,45.43
2019-02-19T08:47:50.254Z,43.30
2019-02-19T08:50:20.152Z,40.40
2019-02-19T08:52:50.067Z,51.63
2019-02-19T08:55:19.968Z,45.63
2019-02-19T08:57:49.928Z,40.63
2019-02-19T09:00:19.853Z,48.33
2019-02-19T09:02:49.757Z,49.83
2019-02-19T09:05:19.644Z,50.23
2019-02-19T09:07:49.577Z,54.60
2019-02-19T09:10:19.544Z,42.83
2019-02-19T09:12:49.613Z,46.00
2019-02-19T09:15:19.471Z,40.60
2019-02-19T09:17:52.067Z,45.17
2019-02-19T09:20:21.032Z,42.97
2019-02-19T09:22:50.951Z,47.43
2019-02-19T09:25:21.027Z,45.83
2019-02-19T09:27:50.951Z,45.17
2019-02-19T09:30:20.919Z,51.53
2019-02-19T09:32:50.909Z,45.20
2019-02-19T09:35:21.756Z,45.80
2019-02-19T09:37:51.677Z,42.27
2019-02-19T09:40:21.575Z,47.47
2019-02-19T09:42:51.508Z,43.80
2019-02-19T09:45:21.427Z,44.40
2019-02-19T09:47:51.341Z,46.53
2019-02-19T09:50:21.236Z,56.07
2019-02-19T09:52:59.486Z,54.20
2019-02-19T09:55:22.681Z,62.57
2019-02-19T09:57:52.744Z,47.17
2019-02-19T10:00:22.811Z,64.33
2019-02-19T10:02:52.918Z,43.20
2019-02-19T10:05:22.852Z,56.80
2019-02-19T10:07:52.809Z,49.70
2019-02-19T10:10:22.812Z,49.17
2019-02-19T10:12:52.745Z,53.73
2019-02-19T10:15:22.640Z,48.80
2019-02-19T10:17:52.552Z,50.30
2019-02-19T10:20:22.550Z,51.87
2019-02-19T10:22:52.487Z,54.43
2019-02-19T10:25:22.393Z,44.27
2019-02-19T10:27:52.309Z,50.00
2019-02-19T10:30:22.306Z,45.73
2019-02-19T10:32:52.227Z,51.40
2019-02-19T10:35:22.155Z,52.97
2019-02-19T10:37:52.093Z,51.73
2019-02-19T10:40:22.013Z,43.77
2019-02-19T10:42:52.025Z,49.57
2019-02-19T10:45:22.215Z,49.50
2019-02-19T10:47:52.119Z,56.43
2019-02-19T10:50:22.037Z,51.27
2019-02-19T10:52:51.996Z,48.03
2019-02-19T10:55:21.964Z,51.27
2019-02-19T10:57:51.884Z,49.27
2019-02-19T11:00:22.692Z,49.27
2019-02-19T11:02:52.683Z,57.43
2019-02-19T11:05:22.642Z,45.63
2019-02-19T11:07:52.569Z,52.80
2019-02-19T11:10:24.360Z,48.97
2019-02-19T11:12:54.321Z,59.07
2019-02-19T11:15:24.224Z,51.17
2019-02-19T11:17:54.170Z,38.73
2019-02-19T11:20:24.830Z,58.57
2019-02-19T11:22:54.773Z,54.20
2019-02-19T11:25:24.851Z,47.63
2019-02-19T11:27:54.815Z,41.70
2019-02-19T11:30:24.745Z,43.27
2019-02-19T11:32:54.744Z,39.17
2019-02-19T11:35:24.677Z,50.27
2019-02-19T11:37:54.596Z,171.20
2019-02-19T11:40:24.548Z,44.50
2019-02-19T11:42:54.527Z,37.20
2019-02-19T11:45:24.455Z,46.07
2019-02-19T11:47:54.384Z,44.10
2019-02-19T11:50:24.335Z,42.80
2019-02-19T11:52:54.418Z,46.57
2019-02-19T11:55:24.422Z,48.60
2019-02-19T11:57:54.415Z,47.77
2019-02-19T12:00:29.640Z,44.47
2019-02-19T12:02:59.540Z,42.80
2019-02-19T12:05:29.497Z,45.57
2019-02-19T12:07:59.497Z,37.93
2019-02-19T12:10:29.417Z,38.27
2019-02-19T12:12:59.307Z,30.93
2019-02-19T12:15:35.114Z,37.60
2019-02-19T12:18:01.012Z,34.13
2019-02-19T12:20:30.957Z,32.60
2019-02-19T12:23:01.045Z,31.93
2019-02-19T12:25:30.989Z,33.77
2019-02-19T12:28:00.907Z,31.73
2019-02-19T12:30:30.927Z,27.20
2019-02-19T12:33:00.859Z,28.07
2019-02-19T12:35:31.078Z,31.60
2019-02-19T12:38:01.062Z,31.67
2019-02-19T12:40:31.008Z,28.53
2019-02-19T12:43:00.916Z,35.13
2019-02-19T12:45:30.854Z,28.50
2019-02-19T12:48:00.769Z,27.00
2019-02-19T12:50:30.696Z,27.90
2019-02-19T12:53:00.649Z,29.70
2019-02-19T12:55:30.723Z,36.43
2019-02-19T12:58:00.644Z,24.80
2019-02-19T13:00:30.679Z,27.33
2019-02-19T13:03:00.599Z,20.07
2019-02-19T13:05:30.550Z,22.50
2019-02-19T13:08:00.455Z,21.07
2019-02-19T13:10:30.364Z,24.77
2019-02-19T13:13:00.282Z,20.37
2019-02-19T13:15:30.213Z,22.43
2019-02-19T13:18:00.116Z,21.70
2019-02-19T13:20:30.060Z,24.40
2019-02-19T13:22:59.973Z,19.73
2019-02-19T13:25:29.912Z,24.50
2019-02-19T13:27:59.831Z,28.00
2019-02-19T13:30:29.920Z,26.30
2019-02-19T13:32:59.911Z,31.67
2019-02-19T13:35:29.841Z,19.80
2019-02-19T13:37:59.762Z,26.80
2019-02-19T13:40:29.743Z,24.03
2019-02-19T13:42:59.648Z,31.50
2019-02-19T13:45:29.580Z,19.30
2019-02-19T13:48:05.746Z,23.13
2019-02-19T13:50:31.148Z,28.20
2019-02-19T13:53:12.155Z,23.50
2019-02-19T13:55:45.472Z,23.00
2019-02-19T13:58:15.370Z,29.03
2019-02-19T14:00:48.255Z,23.93
2019-02-19T14:03:18.144Z,26.87
2019-02-19T14:05:48.156Z,22.50
2019-02-19T14:08:18.071Z,28.13
2019-02-19T14:10:48.085Z,19.90
2019-02-19T14:13:18.001Z,24.07
2019-02-19T14:16:04.627Z,21.67
2019-02-19T14:18:52.255Z,26.03
2019-02-19T14:21:53.204Z,33.47
2019-02-19T14:24:51.477Z,32.63
2019-02-19T14:27:31.954Z,17.00
2019-02-19T14:30:19.819Z,23.73
2019-02-19T14:33:06.276Z,18.90
2019-02-19T14:36:01.287Z,23.33
2019-02-19T14:38:56.902Z,23.20
2019-02-19T14:41:39.025Z,17.73
2019-02-19T14:44:34.017Z,20.30
2019-02-19T14:47:25.984Z,17.43
2019-02-19T14:50:13.556Z,16.63
2019-02-19T14:52:58.833Z,13.20
2019-02-19T14:55:46.527Z,16.30
2019-02-19T14:58:34.245Z,20.63
2019-02-19T15:01:41.650Z,20.57
2019-02-19T15:04:30.583Z,14.97
2019-02-19T15:07:27.955Z,10.27
2019-02-19T15:10:32.015Z,24.57
2019-02-19T15:13:19.680Z,20.30
2019-02-19T15:16:08.651Z,12.47
2019-02-19T15:18:56.591Z,11.50
2019-02-19T15:21:44.401Z,12.50
2019-02-19T15:24:36.913Z,10.20
2019-02-19T15:27:35.293Z,21.50
2019-02-19T15:30:24.896Z,14.03
2019-02-19T15:33:29.306Z,18.40
2019-02-19T15:36:33.601Z,12.50
2019-02-19T15:39:25.297Z,18.93
2019-02-19T15:42:12.896Z,15.93
2019-02-19T15:44:59.911Z,7.90
2019-02-19T15:47:55.535Z,12.40
2019-02-19T15:50:43.472Z,10.83
2019-02-19T15:53:47.972Z,11.00
2019-02-19T15:56:52.114Z,18.20
2019-02-19T15:59:40.493Z,25.70
2019-02-19T16:02:25.971Z,11.20
2019-02-19T16:05:05.579Z,14.70
2019-02-19T16:07:48.378Z,8.50
2019-02-19T16:10:39.260Z,9.00
2019-02-19T16:13:24.497Z,13.60
2019-02-19T16:16:11.396Z,14.57
2019-02-19T16:18:55.469Z,11.83
2019-02-19T16:21:47.994Z,12.23
2019-02-19T16:24:46.065Z,24.90
2019-02-19T16:27:37.064Z,15.57
2019-02-19T16:30:27.039Z,17.13
2019-02-19T16:33:34.476Z,9.00
2019-02-19T16:36:14.194Z,17.17
2019-02-19T16:39:15.211Z,20.27
2019-02-19T16:42:06.924Z,13.73
2019-02-19T16:44:56.268Z,14.80
2019-02-19T16:47:45.384Z,14.67
2019-02-19T16:50:36.480Z,14.40
2019-02-19T16:53:13.492Z,20.80
2019-02-19T16:56:17.552Z,22.20
2019-02-19T16:59:09.210Z,19.13
2019-02-19T17:02:00.989Z,25.67
2019-02-19T17:04:37.765Z,17.20
2019-02-19T17:07:26.313Z,14.27
2019-02-19T17:10:16.191Z,13.57
2019-02-19T17:13:04.097Z,19.60
2019-02-19T17:15:48.272Z,20.93
2019-02-19T17:18:37.274Z,18.27
2019-02-19T17:21:24.059Z,24.80
2019-02-19T17:24:28.071Z,19.40
2019-02-19T17:27:07.411Z,19.10
2019-02-19T17:29:56.414Z,21.57
2019-02-19T17:32:40.799Z,22.27
2019-02-19T17:35:32.797Z,15.33
2019-02-19T17:38:14.627Z,16.20
2019-02-19T17:41:06.460Z,18.60
2019-02-19T17:43:51.249Z,21.70
2019-02-19T17:46:52.912Z,19.93
2019-02-19T17:49:54.482Z,16.00
2019-02-19T17:52:42.277Z,13.50
2019-02-19T17:55:49.560Z,13.30
2019-02-19T17:58:41.235Z,14.73
2019-02-19T18:01:28.652Z,14.33
2019-02-19T18:04:26.797Z,18.30
2019-02-19T18:07:14.487Z,20.33
2019-02-19T18:09:58.741Z,12.20
2019-02-19T18:12:40.259Z,14.23
2019-02-19T18:15:34.795Z,15.60
2019-02-19T18:18:25.986Z,14.63
2019-02-19T18:20:55.911Z,11.77
2019-02-19T18:23:27.134Z,17.50
2019-02-19T18:25:57.149Z,15.30
2019-02-19T18:28:27.169Z,11.60
2019-02-19T18:30:57.230Z,17.90
2019-02-19T18:33:27.951Z,14.13
2019-02-19T18:35:57.868Z,17.93
2019-02-19T18:38:27.893Z,13.43
2019-02-19T18:40:57.828Z,15.03
2019-02-19T18:43:27.703Z,12.43
2019-02-19T18:45:57.702Z,14.37
2019-02-19T18:48:28.311Z,12.40
2019-02-19T18:50:58.854Z,56.90
2019-02-19T18:53:29.227Z,24.37
2019-02-19T18:55:59.324Z,14.33
2019-02-19T18:58:29.209Z,15.33
2019-02-19T19:00:59.361Z,14.57
2019-02-19T19:03:30.625Z,12.60
2019-02-19T19:06:00.617Z,12.97
2019-02-19T19:08:30.612Z,15.97
2019-02-19T19:11:00.539Z,17.30
2019-02-19T19:13:30.428Z,15.53
2019-02-19T19:16:00.361Z,13.70
2019-02-19T19:18:30.333Z,14.27
2019-02-19T19:21:07.697Z,14.03
2019-02-19T19:23:31.904Z,12.77
2019-02-19T19:26:01.912Z,15.87
2019-02-19T19:28:31.802Z,15.40
2019-02-19T19:31:01.721Z,14.70
2019-02-19T19:33:31.631Z,15.73
2019-02-19T19:36:01.561Z,14.37
2019-02-19T19:38:31.475Z,19.90
2019-02-19T19:41:01.412Z,20.10
2019-02-19T19:43:31.324Z,19.50
2019-02-19T19:46:01.242Z,15.87
2019-02-19T19:48:31.165Z,15.47
2019-02-19T19:51:01.159Z,15.33
2019-02-19T19:53:31.052Z,16.03
2019-02-19T19:56:01.002Z,19.23
2019-02-19T19:58:30.907Z,16.90
2019-02-19T20:01:00.831Z,17.67
2019-02-19T20:03:30.742Z,19.30
2019-02-19T20:06:00.755Z,13.60
2019-02-19T20:08:30.659Z,19.93
2019-02-19T20:11:00.727Z,15.03
2019-02-19T20:13:30.724Z,16.47
2019-02-19T20:16:01.816Z,29.03
2019-02-19T20:18:38.946Z,15.23
2019-02-19T20:21:03.412Z,13.30
2019-02-19T20:23:33.428Z,16.17
2019-02-19T20:26:03.430Z,21.10
2019-02-19T20:28:33.463Z,19.23
2019-02-19T20:31:03.557Z,13.87
2019-02-19T20:33:33.493Z,17.17
2019-02-19T20:36:03.582Z,15.47
2019-02-19T20:38:33.523Z,16.10
2019-02-19T20:41:03.447Z,15.70
2019-02-19T20:43:33.460Z,12.73
2019-02-19T20:46:03.365Z,15.90
2019-02-19T20:48:33.425Z,14.17
2019-02-19T20:51:03.325Z,12.33
2019-02-19T20:53:33.852Z,15.40
2019-02-19T20:56:03.907Z,12.83
2019-02-19T20:58:34.212Z,15.30
2019-02-19T21:01:04.236Z,18.40
2019-02-19T21:03:34.231Z,20.77
2019-02-19T21:06:04.145Z,25.80
2019-02-19T21:08:34.108Z,17.47
2019-02-19T21:11:04.085Z,17.27
2019-02-19T21:13:34.465Z,19.60
2019-02-19T21:16:04.387Z,21.07
2019-02-19T21:18:34.408Z,26.73
2019-02-19T21:21:04.352Z,15.93
2019-02-19T21:23:34.455Z,17.50
2019-02-19T21:26:04.436Z,18.13
2019-02-19T21:28:34.428Z,16.67
2019-02-19T21:31:04.490Z,18.00
2019-02-19T21:33:34.432Z,12.50
2019-02-19T21:36:04.320Z,17.83
2019-02-19T21:38:34.250Z,22.73
2019-02-19T21:41:04.323Z,17.80
2019-02-19T21:43:34.263Z,11.70
2019-02-19T21:46:04.261Z,15.27
2019-02-19T21:48:34.214Z,21.07
2019-02-19T21:51:04.184Z,16.23
2019-02-19T21:53:34.119Z,15.33
2019-02-19T21:56:04.132Z,13.40
2019-02-19T21:58:34.138Z,13.77
2019-02-19T22:01:04.195Z,15.97
2019-02-19T22:03:34.289Z,10.67
2019-02-19T22:06:04.239Z,13.20
2019-02-19T22:08:34.199Z,14.43
2019-02-19T22:11:04.133Z,18.43
2019-02-19T22:13:34.032Z,21.37
2019-02-19T22:16:03.968Z,13.53
2019-02-19T22:18:33.887Z,14.90
2019-02-19T22:21:18.583Z,15.80
2019-02-19T22:23:48.579Z,16.60
2019-02-19T22:26:18.481Z,22.60
2019-02-19T22:28:48.427Z,15.20
2019-02-19T22:31:19.575Z,11.93
2019-02-19T22:33:49.493Z,17.10
2019-02-19T22:36:19.500Z,13.63
2019-02-19T22:38:49.535Z,17.57
2019-02-19T22:41:19.532Z,14.30
2019-02-19T22:43:49.633Z,13.20
2019-02-19T22:46:19.636Z,13.57
2019-02-19T22:48:49.539Z,14.10
2019-02-19T22:51:19.504Z,11.40
2019-02-19T22:54:04.023Z,14.27
2019-02-19T22:56:36.896Z,11.00
2019-02-19T22:59:07.101Z,12.73
2019-02-19T23:01:51.433Z,14.13
2019-02-19T23:04:21.460Z,12.60
2019-02-19T23:06:51.374Z,11.40
2019-02-19T23:09:21.387Z,14.80
2019-02-19T23:11:51.279Z,15.00
2019-02-19T23:14:21.229Z,12.00
2019-02-19T23:16:51.164Z,12.50
2019-02-19T23:19:21.090Z,15.97
2019-02-19T23:21:51.180Z,13.17
2019-02-19T23:24:21.082Z,14.67
2019-02-19T23:26:51.045Z,11.93
2019-02-19T23:29:21.008Z,16.97
2019-02-19T23:31:51.011Z,14.90
2019-02-19T23:34:20.931Z,22.43
2019-02-19T23:37:07.584Z,13.90
2019-02-19T23:39:43.470Z,10.90
2019-02-19T23:42:09.135Z,20.90
2019-02-19T23:44:39.027Z,10.97
2019-02-19T23:47:09.035Z,17.70
2019-02-19T23:49:38.940Z,14.60
2019-02-19T23:52:08.865Z,11.10
2019-02-19T23:54:38.760Z,17.00
2019-02-19T23:57:08.912Z,17.77
2019-02-19T23:59:39.119Z,15.67
